createdAt,value
2019-04-05T00:00:15.301Z,68.88
2019-04-05T00:02:47.593Z,68.35
2019-04-05T00:05:19.932Z,68.34
2019-04-05T00:07:52.171Z,68.93
2019-04-05T00:10:24.476Z,68.77
2019-04-05T00:12:56.732Z,68.46
2019-04-05T00:15:29.051Z,68.02
2019-04-05T00:18:01.487Z,68.03
2019-04-05T00:20:33.769Z,68.79
2019-04-05T00:23:05.992Z,68.92
2019-04-05T00:25:39.327Z,68.44
2019-04-05T00:28:11.652Z,68.40
2019-04-05T00:30:43.943Z,68.42
2019-04-05T00:33:16.177Z,68.10
2019-04-05T00:35:48.413Z,68.76
2019-04-05T00:38:20.708Z,68.34
2019-04-05T00:40:52.974Z,68.42
2019-04-05T00:43:25.249Z,68.83
2019-04-05T00:45:57.565Z,68.52
2019-04-05T00:48:29.798Z,68.49
2019-04-05T00:51:02.158Z,68.67
2019-04-05T00:53:34.370Z,68.59
2019-04-05T00:56:06.836Z,68.61
2019-04-05T00:58:39.240Z,68.72
2019-04-05T01:01:11.538Z,69.14
2019-04-05T01:03:43.912Z,69.37
2019-04-05T01:06:16.197Z,69.63
2019-04-05T01:08:48.453Z,69.77
2019-04-05T01:11:20.830Z,69.84
2019-04-05T01:13:53.042Z,70.02
2019-04-05T01:16:25.264Z,70.16
2019-04-05T01:18:57.540Z,70.30
2019-04-05T01:21:29.773Z,70.54
2019-04-05T01:24:02.019Z,70.73
2019-04-05T01:26:34.662Z,71.16
2019-04-05T01:29:06.895Z,71.34
2019-04-05T01:31:39.309Z,71.63
2019-04-05T01:34:11.540Z,71.87
2019-04-05T01:36:43.852Z,72.00
2019-04-05T01:39:16.051Z,72.06
2019-04-05T01:41:48.340Z,72.34
2019-04-05T01:44:20.778Z,72.47
2019-04-05T01:46:53.055Z,72.37
2019-04-05T01:49:25.339Z,72.21
2019-04-05T01:51:57.605Z,72.33
2019-04-05T01:54:31.704Z,72.38
2019-04-05T01:57:03.949Z,72.32
2019-04-05T01:59:36.207Z,72.80
2019-04-05T02:02:08.483Z,72.51
2019-04-05T02:04:40.774Z,72.32
2019-04-05T02:07:12.983Z,72.35
2019-04-05T02:09:45.206Z,72.47
2019-04-05T02:12:17.462Z,72.51
2019-04-05T02:14:50.669Z,72.66
2019-04-05T02:17:23.420Z,72.92
2019-04-05T02:19:55.683Z,72.82
2019-04-05T02:22:27.928Z,72.87
2019-04-05T02:25:00.252Z,73.02
2019-04-05T02:27:35.330Z,73.13
2019-04-05T02:30:07.598Z,73.28
2019-04-05T02:32:39.842Z,73.59
2019-04-05T02:35:12.998Z,73.56
2019-04-05T02:37:45.279Z,73.45
2019-04-05T02:40:17.508Z,73.82
2019-04-05T02:42:49.834Z,73.77
2019-04-05T02:45:22.195Z,73.90
2019-04-05T02:47:54.517Z,73.86
2019-04-05T02:50:26.748Z,73.75
2019-04-05T02:52:59.013Z,73.76
2019-04-05T02:55:31.155Z,74.28
2019-04-05T02:58:03.500Z,74.11
2019-04-05T03:00:35.767Z,74.12
2019-04-05T03:03:07.998Z,73.94
2019-04-05T03:05:40.301Z,73.82
2019-04-05T03:08:12.552Z,73.78
2019-04-05T03:10:44.854Z,73.69
2019-04-05T03:13:17.140Z,73.77
2019-04-05T03:15:49.397Z,73.75
2019-04-05T03:18:21.585Z,73.84
2019-04-05T03:20:53.926Z,73.85
2019-04-05T03:23:26.209Z,73.72
2019-04-05T03:25:58.475Z,73.82
2019-04-05T03:28:30.764Z,74.04
2019-04-05T03:31:03.017Z,74.15
2019-04-05T03:33:35.477Z,74.48
2019-04-05T03:36:07.766Z,74.41
2019-04-05T03:38:39.979Z,74.58
2019-04-05T03:41:12.222Z,74.71
2019-04-05T03:43:44.548Z,74.65
2019-04-05T03:46:16.795Z,74.75
2019-04-05T03:48:49.013Z,74.79
2019-04-05T03:51:21.257Z,74.74
2019-04-05T03:53:53.534Z,74.74
2019-04-05T03:56:26.172Z,74.63
2019-04-05T03:58:58.781Z,74.66
2019-04-05T04:01:31.012Z,74.69
2019-04-05T04:04:03.330Z,74.80
2019-04-05T04:06:35.544Z,74.92
2019-04-05T04:09:07.808Z,74.91
2019-04-05T04:11:40.080Z,75.16
2019-04-05T04:14:12.324Z,75.28
2019-04-05T04:16:44.576Z,75.43
2019-04-05T04:19:16.916Z,75.59
2019-04-05T04:21:49.124Z,75.40
2019-04-05T04:24:21.408Z,75.42
2019-04-05T04:26:53.633Z,75.46
2019-04-05T04:29:25.939Z,75.34
2019-04-05T04:31:58.153Z,75.32
2019-04-05T04:34:30.424Z,75.36
2019-04-05T04:37:02.714Z,75.37
2019-04-05T04:39:34.925Z,75.36
2019-04-05T04:42:07.239Z,75.39
2019-04-05T04:44:39.728Z,75.40
2019-04-05T04:47:25.499Z,75.36
2019-04-05T04:49:46.296Z,75.33
2019-04-05T04:52:18.634Z,75.27
2019-04-05T04:54:50.975Z,75.22
2019-04-05T04:57:25.316Z,75.19
2019-04-05T04:59:57.640Z,75.21
2019-04-05T05:02:29.873Z,75.36
2019-04-05T05:05:02.146Z,75.34
2019-04-05T05:07:34.470Z,75.34
2019-04-05T05:10:06.701Z,75.37
2019-04-05T05:12:38.918Z,75.40
2019-04-05T05:15:11.461Z,75.44
2019-04-05T05:17:43.731Z,75.35
2019-04-05T05:20:15.983Z,75.59
2019-04-05T05:22:48.759Z,75.71
2019-04-05T05:25:21.040Z,75.85
2019-04-05T05:27:53.294Z,75.83
2019-04-05T05:30:25.593Z,75.80
2019-04-05T05:32:57.831Z,75.52
2019-04-05T05:35:30.162Z,75.17
2019-04-05T05:38:02.575Z,75.03
2019-04-05T05:40:35.624Z,74.68
2019-04-05T05:43:08.111Z,74.65
2019-04-05T05:45:40.406Z,74.43
2019-04-05T05:48:13.046Z,74.37
2019-04-05T05:50:45.322Z,74.17
2019-04-05T05:53:19.632Z,74.00
2019-04-05T05:55:52.107Z,73.77
2019-04-05T05:58:25.859Z,73.42
2019-04-05T06:00:58.572Z,72.76
2019-04-05T06:03:30.973Z,72.37
2019-04-05T06:06:04.671Z,71.95
2019-04-05T06:08:37.817Z,71.44
2019-04-05T06:11:10.542Z,71.29
2019-04-05T06:13:42.959Z,71.38
2019-04-05T06:16:15.519Z,71.32
2019-04-05T06:18:48.625Z,70.94
2019-04-05T06:21:21.142Z,70.90
2019-04-05T06:23:53.484Z,70.34
2019-04-05T06:26:26.147Z,70.09
2019-04-05T06:28:58.590Z,69.81
2019-04-05T06:31:30.842Z,69.60
2019-04-05T06:34:03.170Z,69.45
2019-04-05T06:36:35.460Z,69.28
2019-04-05T06:39:08.168Z,68.86
2019-04-05T06:41:40.538Z,68.72
2019-04-05T06:44:13.029Z,68.54
2019-04-05T06:46:45.328Z,68.60
2019-04-05T06:49:17.742Z,68.48
2019-04-05T06:51:50.184Z,67.75
2019-04-05T06:54:22.839Z,67.14
2019-04-05T06:56:55.312Z,66.49
2019-04-05T06:59:28.372Z,66.20
2019-04-05T07:02:01.109Z,66.27
2019-04-05T07:04:33.448Z,65.93
2019-04-05T07:07:05.857Z,65.55
2019-04-05T07:09:38.793Z,65.34
2019-04-05T07:12:11.063Z,65.71
2019-04-05T07:14:43.339Z,65.43
2019-04-05T07:17:15.795Z,65.54
2019-04-05T07:19:48.125Z,65.26
2019-04-05T07:22:35.415Z,65.52
2019-04-05T07:24:54.546Z,65.25
2019-04-05T07:27:26.777Z,65.05
2019-04-05T07:29:59.144Z,64.72
2019-04-05T07:32:31.576Z,64.80
2019-04-05T07:35:04.012Z,64.52
2019-04-05T07:37:36.408Z,64.17
2019-04-05T07:40:08.707Z,64.36
2019-04-05T07:42:41.076Z,64.93
2019-04-05T07:45:13.359Z,64.25
2019-04-05T07:47:45.762Z,64.26
2019-04-05T07:50:18.408Z,63.72
2019-04-05T07:52:50.914Z,63.28
2019-04-05T07:55:24.230Z,62.84
2019-04-05T07:57:56.803Z,63.03
2019-04-05T08:00:29.183Z,62.92
2019-04-05T08:03:01.686Z,62.72
2019-04-05T08:05:34.527Z,62.65
2019-04-05T08:08:07.390Z,61.92
2019-04-05T08:10:39.968Z,61.64
2019-04-05T08:13:12.563Z,60.99
2019-04-05T08:15:44.944Z,61.13
2019-04-05T08:18:17.592Z,60.91
2019-04-05T08:20:49.893Z,61.21
2019-04-05T08:23:22.244Z,59.54
2019-04-05T08:25:54.924Z,59.96
2019-04-05T08:28:29.833Z,60.31
2019-04-05T08:31:02.532Z,59.86
2019-04-05T08:33:36.429Z,59.67
2019-04-05T08:36:09.018Z,58.23
2019-04-05T08:38:41.347Z,57.79
2019-04-05T08:41:13.865Z,57.43
2019-04-05T08:43:47.281Z,57.19
2019-04-05T08:46:19.980Z,55.86
2019-04-05T08:48:52.508Z,56.19
2019-04-05T08:51:24.899Z,55.11
2019-04-05T08:53:57.202Z,55.75
2019-04-05T08:56:29.710Z,54.91
2019-04-05T08:59:01.958Z,54.42
2019-04-05T09:01:34.240Z,54.47
2019-04-05T09:04:06.457Z,54.01
2019-04-05T09:06:38.795Z,53.98
2019-04-05T09:09:11.069Z,52.88
2019-04-05T09:11:43.447Z,52.97
2019-04-05T09:14:15.897Z,52.67
2019-04-05T09:16:48.178Z,53.38
2019-04-05T09:19:23.808Z,52.79
2019-04-05T09:21:56.217Z,52.33
2019-04-05T09:24:28.702Z,51.87
2019-04-05T09:27:00.953Z,51.54
2019-04-05T09:29:33.251Z,52.16
2019-04-05T09:32:05.562Z,51.49
2019-04-05T09:34:37.857Z,50.66
2019-04-05T09:37:10.162Z,50.62
2019-04-05T09:39:42.622Z,50.70
2019-04-05T09:42:14.689Z,50.82
2019-04-05T09:44:47.250Z,48.75
2019-04-05T09:47:19.471Z,47.90
2019-04-05T09:49:51.743Z,49.52
2019-04-05T09:52:24.254Z,49.07
2019-04-05T09:54:56.775Z,49.35
2019-04-05T09:57:29.113Z,47.71
2019-04-05T10:00:01.505Z,47.99
2019-04-05T10:02:34.368Z,47.72
2019-04-05T10:05:06.725Z,47.62
2019-04-05T10:07:53.738Z,47.66
2019-04-05T10:10:13.297Z,46.93
2019-04-05T10:12:45.958Z,46.53
2019-04-05T10:15:18.267Z,45.03
2019-04-05T10:17:50.608Z,45.11
2019-04-05T10:20:22.818Z,46.02
2019-04-05T10:22:55.070Z,45.36
2019-04-05T10:25:27.501Z,46.29
2019-04-05T10:28:00.417Z,46.04
2019-04-05T10:30:32.671Z,44.12
2019-04-05T10:33:05.015Z,44.59
2019-04-05T10:35:38.089Z,44.38
2019-04-05T10:38:10.561Z,44.95
2019-04-05T10:40:42.924Z,44.92
2019-04-05T10:43:15.217Z,44.10
2019-04-05T10:45:49.770Z,44.32
2019-04-05T10:48:22.104Z,43.42
2019-04-05T10:50:55.176Z,43.01
2019-04-05T10:53:27.575Z,41.37
2019-04-05T10:56:00.007Z,42.67
2019-04-05T10:58:32.505Z,43.62
2019-04-05T11:01:04.800Z,43.76
2019-04-05T11:03:36.912Z,43.46
2019-04-05T11:06:09.220Z,42.50
2019-04-05T11:08:41.600Z,42.36
2019-04-05T11:11:13.887Z,41.85
2019-04-05T11:13:47.429Z,40.77
2019-04-05T11:16:19.945Z,39.79
2019-04-05T11:18:54.501Z,39.87
2019-04-05T11:21:26.887Z,39.87
2019-04-05T11:23:59.137Z,40.42
2019-04-05T11:26:31.953Z,38.65
2019-04-05T11:29:05.759Z,39.55
2019-04-05T11:31:38.036Z,40.16
2019-04-05T11:34:10.256Z,39.32
2019-04-05T11:36:42.509Z,40.00
2019-04-05T11:39:17.816Z,38.52
2019-04-05T11:41:50.210Z,38.86
2019-04-05T11:44:22.556Z,37.59
2019-04-05T11:46:54.937Z,36.48
2019-04-05T11:49:27.166Z,34.54
2019-04-05T11:51:59.543Z,32.98
2019-04-05T11:54:31.887Z,30.17
2019-04-05T11:57:04.354Z,30.04
2019-04-05T11:59:40.173Z,27.42
2019-04-05T12:02:12.808Z,28.10
2019-04-05T12:04:45.303Z,25.61
2019-04-05T12:07:17.804Z,26.54
2019-04-05T12:09:50.059Z,25.77
2019-04-05T12:12:24.230Z,25.20
2019-04-05T12:14:56.481Z,24.87
2019-04-05T12:17:29.027Z,25.42
2019-04-05T12:20:02.839Z,25.56
2019-04-05T12:22:35.571Z,24.00
2019-04-05T12:25:08.221Z,22.95
2019-04-05T12:27:41.253Z,23.81
2019-04-05T12:30:14.758Z,22.17
2019-04-05T12:32:48.912Z,21.98
2019-04-05T12:35:22.801Z,22.67
2019-04-05T12:37:57.541Z,23.40
2019-04-05T12:40:30.968Z,25.18
2019-04-05T12:43:04.126Z,24.78
2019-04-05T12:45:37.155Z,25.38
2019-04-05T12:48:11.087Z,25.09
2019-04-05T12:50:45.443Z,22.09
2019-04-05T12:53:18.515Z,23.17
2019-04-05T12:55:56.248Z,22.47
2019-04-05T12:58:26.778Z,22.54
2019-04-05T13:00:59.691Z,23.39
2019-04-05T13:03:32.601Z,23.78
2019-04-05T13:06:05.602Z,24.25
2019-04-05T13:08:38.471Z,23.74
2019-04-05T13:11:11.444Z,23.55
2019-04-05T13:13:44.592Z,23.14
2019-04-05T13:16:17.471Z,21.45
2019-04-05T13:18:50.218Z,21.53
2019-04-05T13:21:27.427Z,20.77
2019-04-05T13:23:59.852Z,21.55
2019-04-05T13:26:32.685Z,20.76
2019-04-05T13:29:05.921Z,20.91
2019-04-05T13:31:38.733Z,20.72
2019-04-05T13:34:11.569Z,19.53
2019-04-05T13:36:44.424Z,20.80
2019-04-05T13:39:16.670Z,23.61
2019-04-05T13:41:48.997Z,25.61
2019-04-05T13:44:21.283Z,26.79
2019-04-05T13:46:53.578Z,26.58
2019-04-05T13:49:25.841Z,26.00
2019-04-05T13:51:58.075Z,25.14
2019-04-05T13:54:31.019Z,24.70
2019-04-05T13:57:03.506Z,23.53
2019-04-05T13:59:35.754Z,25.13
2019-04-05T14:02:08.043Z,26.93
2019-04-05T14:04:40.410Z,28.85
2019-04-05T14:07:12.723Z,30.85
2019-04-05T14:09:45.266Z,30.20
2019-04-05T14:12:17.666Z,30.43
2019-04-05T14:14:51.639Z,32.13
2019-04-05T14:17:24.095Z,33.65
2019-04-05T14:19:56.432Z,34.11
2019-04-05T14:22:28.902Z,35.85
2019-04-05T14:25:01.160Z,35.60
2019-04-05T14:27:35.263Z,36.01
2019-04-05T14:30:07.975Z,36.39
2019-04-05T14:32:40.309Z,36.66
2019-04-05T14:35:12.508Z,36.00
2019-04-05T14:37:44.832Z,36.81
2019-04-05T14:40:17.174Z,36.11
2019-04-05T14:42:49.546Z,34.26
2019-04-05T14:45:21.937Z,33.27
2019-04-05T14:47:57.695Z,30.50
2019-04-05T14:50:28.937Z,29.20
2019-04-05T14:53:02.023Z,27.92
2019-04-05T14:55:34.741Z,26.81
2019-04-05T14:58:10.250Z,25.94
2019-04-05T15:00:41.178Z,27.80
2019-04-05T15:03:13.391Z,28.02
2019-04-05T15:05:45.678Z,28.28
2019-04-05T15:08:20.375Z,28.95
2019-04-05T15:10:51.983Z,30.05
2019-04-05T15:13:24.241Z,32.39
2019-04-05T15:15:59.345Z,33.84
2019-04-05T15:18:32.027Z,34.67
2019-04-05T15:21:06.401Z,36.61
2019-04-05T15:23:41.187Z,36.61
2019-04-05T15:26:13.199Z,36.31
2019-04-05T15:28:45.514Z,36.57
2019-04-05T15:31:17.819Z,36.23
2019-04-05T15:33:50.101Z,35.50
2019-04-05T15:36:22.355Z,35.36
2019-04-05T15:38:54.748Z,34.88
2019-04-05T15:41:26.992Z,35.65
2019-04-05T15:43:59.315Z,35.65
2019-04-05T15:46:31.947Z,36.30
2019-04-05T15:49:04.276Z,35.94
2019-04-05T15:51:36.745Z,34.41
2019-04-05T15:54:09.050Z,33.79
2019-04-05T15:56:41.724Z,33.90
2019-04-05T15:59:14.123Z,32.68
2019-04-05T16:01:46.676Z,34.36
2019-04-05T16:04:19.079Z,35.02
2019-04-05T16:06:52.785Z,35.92
2019-04-05T16:09:25.055Z,35.20
2019-04-05T16:11:57.268Z,35.20
2019-04-05T16:14:29.572Z,34.21
2019-04-05T16:17:01.904Z,33.51
2019-04-05T16:19:34.669Z,33.12
2019-04-05T16:22:08.066Z,32.07
2019-04-05T16:24:40.350Z,31.46
2019-04-05T16:27:12.599Z,30.31
2019-04-05T16:29:44.820Z,31.13
2019-04-05T16:32:17.921Z,31.75
2019-04-05T16:34:50.864Z,32.94
2019-04-05T16:37:23.983Z,33.53
2019-04-05T16:39:56.620Z,34.75
2019-04-05T16:42:28.907Z,35.35
2019-04-05T16:45:01.217Z,36.63
2019-04-05T16:47:34.759Z,38.63
2019-04-05T16:50:07.294Z,39.65
2019-04-05T16:52:45.121Z,41.38
2019-04-05T16:55:13.709Z,42.69
2019-04-05T16:57:46.060Z,44.51
2019-04-05T17:00:18.411Z,45.61
2019-04-05T17:02:50.785Z,46.21
2019-04-05T17:05:23.172Z,46.81
2019-04-05T17:07:56.066Z,47.22
2019-04-05T17:10:29.632Z,47.33
2019-04-05T17:13:02.109Z,48.01
2019-04-05T17:15:34.629Z,48.48
2019-04-05T17:18:10.657Z,48.96
2019-04-05T17:20:44.502Z,49.12
2019-04-05T17:23:16.844Z,49.26
2019-04-05T17:25:49.240Z,49.67
2019-04-05T17:28:21.615Z,50.09
2019-04-05T17:30:54.434Z,50.48
2019-04-05T17:33:26.870Z,50.69
2019-04-05T17:35:59.268Z,51.23
2019-04-05T17:38:31.581Z,51.33
2019-04-05T17:41:03.916Z,51.47
2019-04-05T17:43:36.167Z,51.86
2019-04-05T17:46:08.626Z,51.98
2019-04-05T17:48:41.033Z,52.29
2019-04-05T17:51:13.585Z,52.71
2019-04-05T17:53:47.317Z,53.31
2019-04-05T17:56:20.692Z,53.96
2019-04-05T17:58:53.353Z,54.16
2019-04-05T18:01:25.756Z,54.52
2019-04-05T18:03:58.846Z,54.65
2019-04-05T18:06:31.717Z,54.91
2019-04-05T18:09:04.566Z,54.88
2019-04-05T18:11:37.377Z,54.62
2019-04-05T18:14:09.637Z,55.21
2019-04-05T18:16:42.007Z,54.78
2019-04-05T18:19:14.287Z,54.77
2019-04-05T18:21:46.627Z,54.88
2019-04-05T18:24:18.860Z,55.39
2019-04-05T18:26:51.029Z,55.25
2019-04-05T18:29:23.299Z,55.67
2019-04-05T18:31:55.641Z,55.65
2019-04-05T18:34:27.891Z,55.91
2019-04-05T18:37:00.213Z,56.00
2019-04-05T18:39:32.472Z,55.88
2019-04-05T18:42:06.699Z,56.45
2019-04-05T18:44:39.123Z,56.45
2019-04-05T18:47:11.374Z,56.45
2019-04-05T18:49:43.636Z,56.57
2019-04-05T18:52:15.958Z,56.80
2019-04-05T18:54:48.201Z,56.74
2019-04-05T18:57:20.501Z,56.68
2019-04-05T18:59:52.791Z,56.92
2019-04-05T19:02:25.165Z,56.73
2019-04-05T19:04:57.365Z,57.01
2019-04-05T19:07:29.649Z,56.93
2019-04-05T19:10:01.926Z,56.93
2019-04-05T19:12:34.415Z,57.20
2019-04-05T19:15:06.594Z,56.62
2019-04-05T19:17:38.855Z,56.75
2019-04-05T19:20:11.093Z,56.79
2019-04-05T19:22:43.403Z,56.65
2019-04-05T19:25:15.888Z,56.66
2019-04-05T19:27:48.184Z,56.77
2019-04-05T19:50:54.588Z,56.23
2019-04-05T19:53:26.839Z,56.76
2019-04-05T19:55:59.061Z,56.43
2019-04-05T19:58:31.494Z,56.66
2019-04-05T20:01:03.840Z,56.77
2019-04-05T20:03:37.477Z,57.21
2019-04-05T20:06:09.847Z,57.67
2019-04-05T20:08:42.175Z,57.85
2019-04-05T20:11:14.385Z,57.66
2019-04-05T20:13:46.658Z,57.44
2019-04-05T20:16:19.152Z,57.46
2019-04-05T20:18:51.433Z,57.42
2019-04-05T20:21:23.654Z,57.67
2019-04-05T20:23:58.013Z,57.51
2019-04-05T20:26:30.212Z,57.68
2019-04-05T20:29:02.661Z,57.68
2019-04-05T20:31:34.985Z,57.73
2019-04-05T20:34:07.253Z,57.89
2019-04-05T20:36:39.596Z,57.69
2019-04-05T20:39:13.010Z,57.77
2019-04-05T20:41:45.382Z,57.87
2019-04-05T20:44:17.588Z,58.06
2019-04-05T20:46:50.026Z,58.60
2019-04-05T20:49:22.642Z,58.82
2019-04-05T20:51:54.962Z,58.73
2019-04-05T20:54:27.260Z,58.73
2019-04-05T20:56:59.821Z,58.66
2019-04-05T20:59:32.075Z,58.65
2019-04-05T21:02:04.407Z,58.62
2019-04-05T21:04:36.676Z,58.72
2019-04-05T21:07:08.918Z,59.08
2019-04-05T21:09:41.255Z,59.39
2019-04-05T21:12:13.539Z,59.33
2019-04-05T21:14:45.751Z,59.55
2019-04-05T21:17:17.994Z,59.92
2019-04-05T21:19:50.339Z,59.87
2019-04-05T21:22:22.644Z,60.16
2019-04-05T21:24:56.321Z,60.26
2019-04-05T21:27:28.496Z,59.97
2019-04-05T21:30:00.972Z,60.21
2019-04-05T21:32:33.317Z,60.74
2019-04-05T21:35:05.792Z,60.18
2019-04-05T21:37:38.183Z,60.72
2019-04-05T21:40:10.575Z,60.67
2019-04-05T21:42:42.891Z,60.47
2019-04-05T21:45:15.208Z,60.64
2019-04-05T21:47:47.604Z,60.65
2019-04-05T21:50:19.949Z,60.79
2019-04-05T21:52:52.257Z,60.85
2019-04-05T21:55:24.516Z,60.87
2019-04-05T21:57:56.644Z,61.13
2019-04-05T22:00:28.726Z,60.70
2019-04-05T22:03:02.668Z,61.02
2019-04-05T22:05:35.000Z,60.88
2019-04-05T22:08:07.293Z,61.24
2019-04-05T22:10:39.775Z,61.01
2019-04-05T22:13:12.272Z,61.01
2019-04-05T22:15:44.542Z,61.14
2019-04-05T22:18:16.841Z,61.76
2019-04-05T22:20:49.216Z,61.22
2019-04-05T22:23:21.738Z,61.18
2019-04-05T22:25:54.293Z,61.35
2019-04-05T22:28:26.865Z,61.42
2019-04-05T22:30:59.169Z,61.51
2019-04-05T22:33:31.541Z,61.99
2019-04-05T22:36:03.814Z,62.18
2019-04-05T22:38:36.103Z,62.08
2019-04-05T22:41:08.508Z,62.20
2019-04-05T22:43:40.942Z,62.25
2019-04-05T22:46:13.247Z,62.24
2019-04-05T22:48:45.555Z,62.29
2019-04-05T22:51:18.082Z,62.44
2019-04-05T22:53:50.390Z,62.43
2019-04-05T22:56:22.659Z,62.45
2019-04-05T22:58:54.958Z,62.74
2019-04-05T23:01:30.486Z,62.97
2019-04-05T23:04:02.690Z,62.99
2019-04-05T23:06:35.009Z,63.17
2019-04-05T23:09:07.436Z,63.31
2019-04-05T23:11:39.718Z,63.17
2019-04-05T23:14:13.990Z,63.53
2019-04-05T23:16:46.581Z,63.62
2019-04-05T23:19:18.862Z,63.63
2019-04-05T23:21:51.331Z,63.43
2019-04-05T23:24:23.776Z,63.63
2019-04-05T23:26:56.092Z,63.77
2019-04-05T23:29:28.353Z,63.70
2019-04-05T23:32:00.653Z,63.71
2019-04-05T23:34:32.945Z,63.68
2019-04-05T23:37:05.460Z,64.09
2019-04-05T23:39:37.844Z,64.04
2019-04-05T23:42:10.191Z,64.03
2019-04-05T23:44:42.449Z,64.25
2019-04-05T23:47:15.125Z,64.41
2019-04-05T23:49:47.416Z,64.35
2019-04-05T23:52:19.706Z,64.47
2019-04-05T23:54:52.019Z,64.44
2019-04-05T23:57:24.836Z,64.43
2019-04-05T23:59:57.126Z,64.59
